createdAt,value
2023-02-02T00:00:29.877Z,24.524000
2023-02-02T00:05:33.082Z,24.512000
2023-02-02T00:10:35.153Z,24.092000
2023-02-02T00:15:17.806Z,23.060000
2023-02-02T00:20:19.899Z,22.808000
2023-02-02T00:25:22.331Z,22.532000
2023-02-02T00:30:24.811Z,22.537143
2023-02-02T00:35:27.783Z,22.220000
2023-02-02T00:40:29.828Z,21.836000
2023-02-02T00:45:32.722Z,21.308000
2023-02-02T00:50:35.019Z,20.900000
2023-02-02T00:55:16.585Z,20.612000
2023-02-02T01:00:18.788Z,20.336000
2023-02-02T01:05:20.882Z,19.988000
2023-02-02T01:10:23.038Z,19.798571
2023-02-02T01:15:25.676Z,19.508000
2023-02-02T01:20:27.523Z,19.088000
2023-02-02T01:25:30.945Z,18.908000
2023-02-02T01:30:32.540Z,18.944000
2023-02-02T01:35:35.454Z,18.860000
2023-02-02T01:40:17.612Z,19.184000
2023-02-02T01:45:20.138Z,19.220000
2023-02-02T01:50:22.207Z,19.117143
2023-02-02T01:55:26.114Z,19.088000
2023-02-02T02:00:27.040Z,19.040000
2023-02-02T02:05:29.650Z,19.172000
2023-02-02T02:10:31.699Z,19.052000
2023-02-02T02:15:33.966Z,18.596000
2023-02-02T02:20:16.309Z,17.996000
2023-02-02T02:25:18.714Z,17.420000
2023-02-02T02:30:21.209Z,16.736000
2023-02-02T02:35:24.185Z,17.047143
2023-02-02T02:40:25.652Z,17.372000
2023-02-02T02:45:28.088Z,17.768000
2023-02-02T02:50:30.456Z,17.780000
2023-02-02T02:55:33.391Z,17.744000
2023-02-02T03:00:35.046Z,17.372000
2023-02-02T03:05:17.338Z,16.928000
2023-02-02T03:10:20.914Z,16.880000
2023-02-02T03:15:22.425Z,16.520000
2023-02-02T03:20:24.621Z,16.327143
2023-02-02T03:25:27.060Z,15.884000
2023-02-02T03:30:29.178Z,15.620000
2023-02-02T03:35:31.356Z,15.800000
2023-02-02T03:40:33.558Z,15.932000
2023-02-02T03:45:35.726Z,15.428000
2023-02-02T03:50:17.847Z,15.128000
2023-02-02T03:55:20.477Z,15.320000
2023-02-02T04:00:22.420Z,15.260000
2023-02-02T04:05:25.351Z,15.056000
2023-02-02T04:10:28.102Z,14.660000
2023-02-02T04:15:29.820Z,14.852000
2023-02-02T04:20:32.195Z,15.536000
2023-02-02T04:25:34.532Z,15.620000
2023-02-02T04:30:16.582Z,15.716000
2023-02-02T04:35:19.478Z,15.716000
2023-02-02T04:40:21.938Z,15.380000
2023-02-02T04:45:25.626Z,15.671429
2023-02-02T04:50:26.511Z,16.028000
2023-02-02T04:55:29.209Z,16.148000
2023-02-02T05:00:32.955Z,15.980000
2023-02-02T05:05:33.912Z,15.980000
2023-02-02T05:10:16.407Z,15.788000
2023-02-02T05:15:18.921Z,15.620000
2023-02-02T05:20:21.567Z,15.536000
2023-02-02T05:25:24.301Z,15.182857
2023-02-02T05:30:26.214Z,14.708000
2023-02-02T05:35:28.625Z,14.660000
2023-02-02T05:40:30.895Z,14.504000
2023-02-02T05:45:33.126Z,14.876000
2023-02-02T05:50:35.128Z,15.560000
2023-02-02T05:55:17.093Z,15.536000
2023-02-02T06:00:19.874Z,15.560000
2023-02-02T06:05:22.225Z,15.452000
2023-02-02T06:10:24.003Z,15.131429
2023-02-02T06:15:27.731Z,14.492000
2023-02-02T06:20:28.712Z,14.516000
2023-02-02T06:25:31.109Z,14.468000
2023-02-02T06:30:33.681Z,14.576000
2023-02-02T06:35:16.092Z,14.636000
2023-02-02T06:40:18.616Z,14.624000
2023-02-02T06:45:21.360Z,14.852000
2023-02-02T06:50:23.391Z,15.054286
2023-02-02T06:55:26.594Z,15.260000
2023-02-02T07:00:28.302Z,15.404000
2023-02-02T07:05:31.444Z,15.440000
2023-02-02T07:11:10.793Z,15.440000
2023-02-02T07:15:35.846Z,15.344000
2023-02-02T07:20:18.280Z,14.708000
2023-02-02T07:25:20.443Z,14.192000
2023-02-02T07:30:22.954Z,14.077143
2023-02-02T07:35:25.586Z,13.880000
2023-02-02T07:40:27.833Z,13.868000
2023-02-02T07:45:30.151Z,13.688000
2023-02-02T07:50:32.518Z,12.980000
2023-02-02T07:55:34.533Z,12.452000
2023-02-02T08:00:16.563Z,12.824000
2023-02-02T08:05:20.418Z,12.536000
2023-02-02T08:10:21.602Z,13.352000
2023-02-02T08:15:23.951Z,13.434286
2023-02-02T08:20:26.400Z,13.208000
2023-02-02T08:25:28.483Z,12.776000
2023-02-02T08:30:32.201Z,12.440000
2023-02-02T08:35:34.498Z,11.960000
2023-02-02T08:40:35.407Z,12.116000
2023-02-02T08:46:01.675Z,11.660000
2023-02-02T08:50:19.991Z,10.868000
2023-02-02T08:55:22.881Z,10.940000
2023-02-02T09:00:24.926Z,11.276000
2023-02-02T09:05:27.352Z,11.264000
2023-02-02T09:10:29.152Z,11.732000
2023-02-02T09:15:31.604Z,11.840000
2023-02-02T09:20:33.463Z,11.600000
2023-02-02T09:25:35.789Z,11.576000
2023-02-02T09:30:17.807Z,11.732000
2023-02-02T09:35:19.960Z,11.660000
2023-02-02T09:40:22.227Z,11.660000
2023-02-02T09:45:24.928Z,11.612000
2023-02-02T09:50:26.937Z,11.384000
2023-02-02T09:55:29.224Z,10.976000
2023-02-02T10:00:32.068Z,10.940000
2023-02-02T10:05:34.260Z,10.940000
2023-02-02T10:10:17.753Z,10.856000
2023-02-02T10:15:18.929Z,11.048000
2023-02-02T10:20:21.206Z,10.988000
2023-02-02T10:25:23.652Z,10.940000
2023-02-02T10:30:26.404Z,10.796000
2023-02-02T10:35:28.249Z,10.784000
2023-02-02T10:40:30.733Z,11.300000
2023-02-02T10:45:33.328Z,11.348000
2023-02-02T10:50:35.712Z,11.120000
2023-02-02T10:55:18.015Z,10.712000
2023-02-02T11:00:22.867Z,10.532000
2023-02-02T11:05:23.154Z,10.875714
2023-02-02T11:10:25.671Z,10.820000
2023-02-02T11:15:27.753Z,10.724000
2023-02-02T11:20:30.292Z,10.640000
2023-02-02T11:25:33.154Z,10.760000
2023-02-02T11:30:15.916Z,10.808000
2023-02-02T11:35:18.407Z,10.628000
2023-02-02T11:40:21.221Z,10.628000
2023-02-02T11:45:23.587Z,10.580000
2023-02-02T11:50:26.412Z,10.304000
2023-02-02T11:55:28.449Z,10.448000
2023-02-02T12:00:30.930Z,10.340000
2023-02-02T12:05:33.615Z,9.872000
2023-02-02T12:10:16.345Z,9.728000
2023-02-02T12:15:19.685Z,9.560000
2023-02-02T12:20:22.893Z,9.435714
2023-02-02T12:25:25.955Z,9.716000
2023-02-02T12:30:28.393Z,9.944000
2023-02-02T12:35:30.640Z,9.860000
2023-02-02T12:40:32.939Z,9.752000
2023-02-02T12:45:35.732Z,9.788000
2023-02-02T12:50:17.921Z,9.656000
2023-02-02T12:55:20.213Z,9.428000
2023-02-02T13:00:23.428Z,9.500000
2023-02-02T13:05:25.714Z,9.500000
2023-02-02T13:10:28.781Z,9.596000
2023-02-02T13:15:31.665Z,9.608000
2023-02-02T13:20:34.069Z,9.524000
2023-02-02T13:25:16.115Z,9.356000
2023-02-02T13:30:18.531Z,9.224000
2023-02-02T13:35:21.018Z,9.344000
2023-02-02T13:40:23.375Z,9.410000
2023-02-02T13:45:26.144Z,9.212000
2023-02-02T13:50:27.915Z,8.744000
2023-02-02T13:55:30.194Z,8.600000
2023-02-02T14:00:32.728Z,8.348000
2023-02-02T14:05:35.320Z,8.528000
2023-02-02T14:10:17.500Z,8.960000
2023-02-02T14:15:20.125Z,8.900000
2023-02-02T14:20:22.568Z,8.728571
2023-02-02T14:25:25.145Z,9.044000
2023-02-02T14:30:27.573Z,8.888000
2023-02-02T14:35:29.279Z,8.996000
2023-02-02T14:40:31.606Z,9.284000
2023-02-02T14:45:33.999Z,9.320000
2023-02-02T14:50:16.314Z,9.092000
2023-02-02T14:55:18.963Z,8.852000
2023-02-02T15:00:21.579Z,9.068000
2023-02-02T15:05:24.418Z,9.050000
2023-02-02T15:10:26.351Z,9.140000
2023-02-02T15:15:29.036Z,9.572000
2023-02-02T15:20:31.415Z,10.196000
2023-02-02T15:25:33.740Z,10.592000
2023-02-02T15:30:17.108Z,11.216000
2023-02-02T15:35:18.273Z,11.564000
2023-02-02T15:40:21.278Z,11.840000
2023-02-02T15:45:24.388Z,12.212857
2023-02-02T15:50:27.316Z,12.980000
2023-02-02T15:55:30.252Z,13.568000
2023-02-02T16:00:33.282Z,14.168000
2023-02-02T16:05:28.337Z,15.080000
2023-02-02T16:10:19.104Z,14.768000
2023-02-02T16:15:21.636Z,14.948000
2023-02-02T16:20:24.435Z,15.272857
2023-02-02T16:25:27.776Z,15.992000
2023-02-02T16:30:30.253Z,16.448000
2023-02-02T16:35:32.977Z,16.520000
2023-02-02T16:40:35.387Z,16.976000
2023-02-02T16:45:17.924Z,17.192000
2023-02-02T16:50:20.457Z,17.228000
2023-02-02T16:55:23.728Z,18.050000
2023-02-02T17:00:25.591Z,18.308000
2023-02-02T17:05:28.348Z,17.504000
2023-02-02T17:10:30.487Z,17.636000
2023-02-02T17:15:34.838Z,18.632000
2023-02-02T17:20:35.090Z,19.340000
2023-02-02T17:25:17.398Z,19.568000
2023-02-02T17:30:19.851Z,20.960000
2023-02-02T17:35:22.227Z,21.804286
2023-02-02T17:40:24.967Z,21.188000
2023-02-02T17:45:27.484Z,21.296000
2023-02-02T17:50:29.792Z,21.284000
2023-02-02T17:55:32.579Z,21.728000
2023-02-02T18:00:35.151Z,22.100000
2023-02-02T18:05:18.075Z,22.028000
2023-02-02T18:10:20.496Z,22.184000
2023-02-02T18:15:23.903Z,22.588571
2023-02-02T18:20:26.170Z,22.952000
2023-02-02T18:25:29.183Z,23.852000
2023-02-02T18:30:31.699Z,24.188000
2023-02-02T18:35:34.652Z,24.224000
2023-02-02T18:40:16.888Z,24.380000
2023-02-02T18:45:19.554Z,24.872000
2023-02-02T18:50:21.968Z,25.160000
2023-02-02T18:55:36.805Z,25.455714
2023-02-02T19:00:19.356Z,24.344000
2023-02-02T19:05:30.520Z,24.080000
2023-02-02T19:10:33.178Z,24.908000
2023-02-02T19:15:15.979Z,25.376000
2023-02-02T19:20:25.183Z,25.262857
2023-02-02T19:25:28.409Z,25.496000
2023-02-02T19:30:30.805Z,25.604000
2023-02-02T19:35:33.523Z,25.748000
2023-02-02T19:40:35.950Z,26.444000
2023-02-02T19:45:18.284Z,26.660000
2023-02-02T19:50:20.882Z,26.852000
2023-02-02T19:55:23.407Z,27.731429
2023-02-02T20:00:26.451Z,27.416000
2023-02-02T20:05:28.722Z,27.200000
2023-02-02T20:10:31.477Z,27.536000
2023-02-02T20:15:34.174Z,27.224000
2023-02-02T20:20:16.525Z,27.080000
2023-02-02T20:25:18.665Z,27.452000
2023-02-02T20:30:21.544Z,28.076000
2023-02-02T20:35:23.918Z,27.757143
2023-02-02T20:40:26.703Z,27.392000
2023-02-02T20:45:28.918Z,28.412000
2023-02-02T20:50:31.249Z,28.124000
2023-02-02T20:55:33.636Z,28.412000
2023-02-02T21:00:36.099Z,28.052000
2023-02-02T21:05:18.231Z,27.800000
2023-02-02T21:10:20.635Z,27.452000
2023-02-02T21:15:23.253Z,27.834286
2023-02-02T21:20:25.948Z,28.436000
2023-02-02T21:25:28.298Z,27.800000
2023-02-02T21:30:31.480Z,27.764000
2023-02-02T21:35:33.736Z,28.184000
2023-02-02T21:40:16.351Z,28.244000
2023-02-02T21:45:19.089Z,28.508000
2023-02-02T21:50:21.645Z,28.280000
2023-02-02T21:55:24.018Z,28.310000
2023-02-02T22:00:27.201Z,28.616000
2023-02-02T22:05:29.171Z,28.076000
2023-02-02T22:10:31.597Z,28.112000
2023-02-02T22:15:34.378Z,28.328000
2023-02-02T22:20:16.514Z,28.712000
2023-02-02T22:25:19.068Z,28.748000
2023-02-02T22:30:21.617Z,29.204000
2023-02-02T22:35:24.230Z,29.750000
2023-02-02T22:40:27.291Z,29.780000
2023-02-02T22:45:29.439Z,28.856000
2023-02-02T22:50:32.145Z,28.748000
2023-02-02T22:55:34.294Z,28.076000
2023-02-02T23:00:16.616Z,27.860000
2023-02-02T23:05:18.871Z,27.728000
2023-02-02T23:10:21.136Z,28.076000
2023-02-02T23:15:23.452Z,27.808571
2023-02-02T23:20:25.971Z,27.128000
2023-02-02T23:25:28.142Z,27.812000
2023-02-02T23:30:30.512Z,28.076000
2023-02-02T23:35:33.689Z,28.028000
2023-02-02T23:40:35.931Z,27.992000
2023-02-02T23:45:18.039Z,27.872000
2023-02-02T23:50:20.757Z,28.004000
2023-02-02T23:55:23.337Z,27.975714
